sensor_id;sensor_type;location;lat;lon;timestamp;temperature;humidity
14521;DHT22;7347;50.844;4.490;2023-11-22T07:14:37;5.90;99.90
14521;DHT22;7347;50.844;4.490;2023-11-22T07:17:04;6.00;99.90
14521;DHT22;7347;50.844;4.490;2023-11-22T07:19:32;6.00;99.90
14521;DHT22;7347;50.844;4.490;2023-11-22T07:22:00;6.00;99.90
14521;DHT22;7347;50.844;4.490;2023-11-22T07:24:29;5.90;99.90
14521;DHT22;7347;50.844;4.490;2023-11-22T07:26:59;5.90;99.90
14521;DHT22;7347;50.844;4.490;2023-11-22T07:29:28;5.90;99.90
14521;DHT22;7347;50.844;4.490;2023-11-22T07:31:56;5.90;99.90
14521;DHT22;7347;50.844;4.490;2023-11-22T07:34:23;5.80;99.90
14521;DHT22;7347;50.844;4.490;2023-11-22T07:36:50;5.60;99.90
14521;DHT22;7347;50.844;4.490;2023-11-22T07:39:17;5.70;99.90
14521;DHT22;7347;50.844;4.490;2023-11-22T07:41:45;5.90;99.90
14521;DHT22;7347;50.844;4.490;2023-11-22T07:44:14;6.10;99.90
14521;DHT22;7347;50.844;4.490;2023-11-22T07:46:42;6.30;99.90
14521;DHT22;7347;50.844;4.490;2023-11-22T07:49:11;6.30;99.90
14521;DHT22;7347;50.844;4.490;2023-11-22T07:51:39;6.40;99.90
14521;DHT22;7347;50.844;4.490;2023-11-22T07:54:07;6.50;99.90
14521;DHT22;7347;50.844;4.490;2023-11-22T07:56:34;6.70;99.90
14521;DHT22;7347;50.844;4.490;2023-11-22T07:59:01;6.70;99.90
14521;DHT22;7347;50.844;4.490;2023-11-22T08:01:27;6.70;99.90
14521;DHT22;7347;50.844;4.490;2023-11-22T08:03:57;6.70;99.90
14521;DHT22;7347;50.844;4.490;2023-11-22T08:06:25;6.70;99.90
14521;DHT22;7347;50.844;4.490;2023-11-22T08:08:52;6.40;99.90
14521;DHT22;7347;50.844;4.490;2023-11-22T08:11:19;6.50;99.90
14521;DHT22;7347;50.844;4.490;2023-11-22T08:13:46;6.30;99.90
14521;DHT22;7347;50.844;4.490;2023-11-22T08:16:13;6.30;99.90
14521;DHT22;7347;50.844;4.490;2023-11-22T08:18:41;6.40;99.90
14521;DHT22;7347;50.844;4.490;2023-11-22T08:21:08;6.60;99.90
14521;DHT22;7347;50.844;4.490;2023-11-22T08:23:37;6.70;99.90
14521;DHT22;7347;50.844;4.490;2023-11-22T08:26:04;6.90;99.90
14521;DHT22;7347;50.844;4.490;2023-11-22T08:28:32;7.20;99.90
14521;DHT22;7347;50.844;4.490;2023-11-22T08:30:59;6.80;99.90
14521;DHT22;7347;50.844;4.490;2023-11-22T08:33:28;6.70;99.90
14521;DHT22;7347;50.844;4.490;2023-11-22T08:35:55;6.80;99.90
14521;DHT22;7347;50.844;4.490;2023-11-22T08:38:25;6.80;99.90
14521;DHT22;7347;50.844;4.490;2023-11-22T08:40:53;6.80;99.90
14521;DHT22;7347;50.844;4.490;2023-11-22T08:43:22;6.90;99.90
14521;DHT22;7347;50.844;4.490;2023-11-22T08:45:51;7.10;99.90
14521;DHT22;7347;50.844;4.490;2023-11-22T08:48:18;7.10;99.90
14521;DHT22;7347;50.844;4.490;2023-11-22T08:50:45;7.40;99.90
14521;DHT22;7347;50.844;4.490;2023-11-22T08:53:13;7.50;99.90
14521;DHT22;7347;50.844;4.490;2023-11-22T08:55:40;7.40;99.90
14521;DHT22;7347;50.844;4.490;2023-11-22T08:58:10;7.40;99.90
14521;DHT22;7347;50.844;4.490;2023-11-22T09:00:37;7.40;99.90
14521;DHT22;7347;50.844;4.490;2023-11-22T09:03:03;7.40;99.90
14521;DHT22;7347;50.844;4.490;2023-11-22T09:05:30;7.30;99.90
14521;DHT22;7347;50.844;4.490;2023-11-22T09:07:57;7.10;99.90
14521;DHT22;7347;50.844;4.490;2023-11-22T09:10:24;7.00;99.90
14521;DHT22;7347;50.844;4.490;2023-11-22T09:12:52;7.10;99.90
14521;DHT22;7347;50.844;4.490;2023-11-22T09:15:20;7.30;99.90
14521;DHT22;7347;50.844;4.490;2023-11-22T09:17:52;7.40;99.90
14521;DHT22;7347;50.844;4.490;2023-11-22T09:20:20;7.40;99.90
14521;DHT22;7347;50.844;4.490;2023-11-22T09:22:49;7.50;99.90
14521;DHT22;7347;50.844;4.490;2023-11-22T09:25:15;7.50;99.90
14521;DHT22;7347;50.844;4.490;2023-11-22T09:27:45;7.70;99.90
14521;DHT22;7347;50.844;4.490;2023-11-22T09:30:13;7.80;99.90
14521;DHT22;7347;50.844;4.490;2023-11-22T09:32:46;7.70;99.90
14521;DHT22;7347;50.844;4.490;2023-11-22T09:35:14;7.70;99.90
14521;DHT22;7347;50.844;4.490;2023-11-22T09:37:41;7.70;99.90
14521;DHT22;7347;50.844;4.490;2023-11-22T09:40:09;7.60;99.90
14521;DHT22;7347;50.844;4.490;2023-11-22T09:42:38;7.50;99.90
14521;DHT22;7347;50.844;4.490;2023-11-22T09:45:05;7.70;99.90
14521;DHT22;7347;50.844;4.490;2023-11-22T09:47:33;7.80;99.90
14521;DHT22;7347;50.844;4.490;2023-11-22T09:50:02;7.90;99.90
14521;DHT22;7347;50.844;4.490;2023-11-22T09:52:33;7.90;99.90
14521;DHT22;7347;50.844;4.490;2023-11-22T09:55:02;8.10;99.90
14521;DHT22;7347;50.844;4.490;2023-11-22T09:57:30;8.30;99.90
14521;DHT22;7347;50.844;4.490;2023-11-22T09:59:59;8.20;99.90
14521;DHT22;7347;50.844;4.490;2023-11-22T10:02:27;7.90;99.90
14521;DHT22;7347;50.844;4.490;2023-11-22T10:04:54;7.80;99.90
14521;DHT22;7347;50.844;4.490;2023-11-22T10:07:23;7.80;99.90
14521;DHT22;7347;50.844;4.490;2023-11-22T10:09:51;8.00;99.90
14521;DHT22;7347;50.844;4.490;2023-11-22T10:12:19;8.00;99.90
14521;DHT22;7347;50.844;4.490;2023-11-22T10:14:47;8.00;99.90
14521;DHT22;7347;50.844;4.490;2023-11-22T10:17:13;8.00;99.90
14521;DHT22;7347;50.844;4.490;2023-11-22T10:19:42;8.10;99.90
14521;DHT22;7347;50.844;4.490;2023-11-22T10:22:09;7.90;99.90
14521;DHT22;7347;50.844;4.490;2023-11-22T10:24:43;8.00;99.90
14521;DHT22;7347;50.844;4.490;2023-11-22T10:27:12;8.10;99.90
14521;DHT22;7347;50.844;4.490;2023-11-22T10:29:39;7.90;99.90
14521;DHT22;7347;50.844;4.490;2023-11-22T10:32:06;8.00;99.90
14521;DHT22;7347;50.844;4.490;2023-11-22T10:34:33;8.00;99.90
14521;DHT22;7347;50.844;4.490;2023-11-22T10:37:02;8.00;99.90
14521;DHT22;7347;50.844;4.490;2023-11-22T10:39:30;8.10;99.90
14521;DHT22;7347;50.844;4.490;2023-11-22T10:41:59;8.10;99.90
14521;DHT22;7347;50.844;4.490;2023-11-22T10:44:26;8.00;99.90
14521;DHT22;7347;50.844;4.490;2023-11-22T10:46:54;7.90;99.90
14521;DHT22;7347;50.844;4.490;2023-11-22T10:49:21;8.00;99.90
14521;DHT22;7347;50.844;4.490;2023-11-22T10:51:51;8.20;99.90
14521;DHT22;7347;50.844;4.490;2023-11-22T10:54:21;8.40;99.90
14521;DHT22;7347;50.844;4.490;2023-11-22T10:56:54;8.60;99.90
14521;DHT22;7347;50.844;4.490;2023-11-22T10:59:26;8.60;99.90
14521;DHT22;7347;50.844;4.490;2023-11-22T11:01:55;8.60;99.90
14521;DHT22;7347;50.844;4.490;2023-11-22T11:04:27;8.50;99.90
14521;DHT22;7347;50.844;4.490;2023-11-22T11:06:57;8.60;99.90
14521;DHT22;7347;50.844;4.490;2023-11-22T11:09:25;8.50;99.90
14521;DHT22;7347;50.844;4.490;2023-11-22T11:11:58;8.70;99.90
14521;DHT22;7347;50.844;4.490;2023-11-22T11:14:26;8.70;99.90
14521;DHT22;7347;50.844;4.490;2023-11-22T11:16:54;8.80;99.90
14521;DHT22;7347;50.844;4.490;2023-11-22T11:19:24;8.70;99.90
14521;DHT22;7347;50.844;4.490;2023-11-22T11:21:51;8.80;99.90
14521;DHT22;7347;50.844;4.490;2023-11-22T11:24:18;8.90;99.90
14521;DHT22;7347;50.844;4.490;2023-11-22T11:26:48;8.90;99.90
14521;DHT22;7347;50.844;4.490;2023-11-22T11:29:31;8.90;99.90
14521;DHT22;7347;50.844;4.490;2023-11-22T11:31:59;9.00;99.90
14521;DHT22;7347;50.844;4.490;2023-11-22T11:34:27;9.10;99.90
14521;DHT22;7347;50.844;4.490;2023-11-22T11:36:55;9.10;99.90
14521;DHT22;7347;50.844;4.490;2023-11-22T11:39:25;9.00;99.90
14521;DHT22;7347;50.844;4.490;2023-11-22T11:42:08;9.00;99.90
14521;DHT22;7347;50.844;4.490;2023-11-22T11:44:36;9.10;99.90
14521;DHT22;7347;50.844;4.490;2023-11-22T11:47:09;9.20;99.90
14521;DHT22;7347;50.844;4.490;2023-11-22T11:49:37;9.40;99.90
14521;DHT22;7347;50.844;4.490;2023-11-22T11:52:04;9.30;99.90
14521;DHT22;7347;50.844;4.490;2023-11-22T11:54:31;9.40;99.90
14521;DHT22;7347;50.844;4.490;2023-11-22T11:56:59;9.60;99.90
14521;DHT22;7347;50.844;4.490;2023-11-22T11:59:26;9.90;99.90
14521;DHT22;7347;50.844;4.490;2023-11-22T12:01:55;10.10;99.90
14521;DHT22;7347;50.844;4.490;2023-11-22T12:04:23;10.20;99.90
14521;DHT22;7347;50.844;4.490;2023-11-22T12:06:50;10.40;99.90
14521;DHT22;7347;50.844;4.490;2023-11-22T12:09:22;10.60;99.90
14521;DHT22;7347;50.844;4.490;2023-11-22T12:11:52;10.70;99.90
14521;DHT22;7347;50.844;4.490;2023-11-22T12:14:19;10.90;99.90
14521;DHT22;7347;50.844;4.490;2023-11-22T12:16:46;10.40;99.90
14521;DHT22;7347;50.844;4.490;2023-11-22T12:19:23;10.50;99.90
14521;DHT22;7347;50.844;4.490;2023-11-22T12:21:50;10.40;99.90
14521;DHT22;7347;50.844;4.490;2023-11-22T12:24:17;10.20;99.90
14521;DHT22;7347;50.844;4.490;2023-11-22T12:26:45;10.10;99.90
14521;DHT22;7347;50.844;4.490;2023-11-22T12:29:14;9.80;99.90
14521;DHT22;7347;50.844;4.490;2023-11-22T12:31:45;9.80;99.90
14521;DHT22;7347;50.844;4.490;2023-11-22T12:34:14;9.80;99.90
14521;DHT22;7347;50.844;4.490;2023-11-22T12:36:42;9.90;99.90
14521;DHT22;7347;50.844;4.490;2023-11-22T12:39:09;10.00;99.90
14521;DHT22;7347;50.844;4.490;2023-11-22T12:41:43;10.00;99.90
14521;DHT22;7347;50.844;4.490;2023-11-22T12:44:11;9.90;99.90
14521;DHT22;7347;50.844;4.490;2023-11-22T12:46:48;9.90;99.90
14521;DHT22;7347;50.844;4.490;2023-11-22T12:49:21;9.90;99.90
14521;DHT22;7347;50.844;4.490;2023-11-22T12:51:53;9.90;99.90
14521;DHT22;7347;50.844;4.490;2023-11-22T12:54:20;10.10;99.90
14521;DHT22;7347;50.844;4.490;2023-11-22T12:56:49;9.70;99.90
14521;DHT22;7347;50.844;4.490;2023-11-22T12:59:16;9.70;99.90
14521;DHT22;7347;50.844;4.490;2023-11-22T13:01:43;9.70;99.90
14521;DHT22;7347;50.844;4.490;2023-11-22T13:04:11;9.70;99.90
14521;DHT22;7347;50.844;4.490;2023-11-22T13:06:40;9.60;99.90
14521;DHT22;7347;50.844;4.490;2023-11-22T13:09:08;9.50;99.90
14521;DHT22;7347;50.844;4.490;2023-11-22T13:11:40;9.40;99.90
14521;DHT22;7347;50.844;4.490;2023-11-22T13:14:07;9.20;99.90
14521;DHT22;7347;50.844;4.490;2023-11-22T13:16:34;9.00;99.90
14521;DHT22;7347;50.844;4.490;2023-11-22T13:19:04;8.90;99.90
14521;DHT22;7347;50.844;4.490;2023-11-22T13:21:31;8.90;99.90
14521;DHT22;7347;50.844;4.490;2023-11-22T13:23:58;9.00;99.90
14521;DHT22;7347;50.844;4.490;2023-11-22T13:26:27;8.80;99.90
14521;DHT22;7347;50.844;4.490;2023-11-22T13:28:53;8.60;99.90
14521;DHT22;7347;50.844;4.490;2023-11-22T13:31:21;8.60;99.90
14521;DHT22;7347;50.844;4.490;2023-11-22T13:33:48;8.70;99.90
14521;DHT22;7347;50.844;4.490;2023-11-22T13:36:16;8.60;99.90
14521;DHT22;7347;50.844;4.490;2023-11-22T13:38:43;8.60;99.90
14521;DHT22;7347;50.844;4.490;2023-11-22T13:41:10;8.60;99.90
14521;DHT22;7347;50.844;4.490;2023-11-22T13:43:38;8.70;99.90
14521;DHT22;7347;50.844;4.490;2023-11-22T13:46:05;8.90;99.90
14521;DHT22;7347;50.844;4.490;2023-11-22T13:48:35;9.00;99.90
14521;DHT22;7347;50.844;4.490;2023-11-22T13:51:02;9.10;99.90
14521;DHT22;7347;50.844;4.490;2023-11-22T13:53:29;9.20;99.90
14521;DHT22;7347;50.844;4.490;2023-11-22T13:55:59;9.30;99.90
14521;DHT22;7347;50.844;4.490;2023-11-22T13:58:31;9.30;99.90
14521;DHT22;7347;50.844;4.490;2023-11-22T14:01:00;9.00;99.90
14521;DHT22;7347;50.844;4.490;2023-11-22T14:03:27;9.10;99.90
14521;DHT22;7347;50.844;4.490;2023-11-22T14:05:54;8.90;99.90
14521;DHT22;7347;50.844;4.490;2023-11-22T14:08:23;8.80;99.90
14521;DHT22;7347;50.844;4.490;2023-11-22T14:10:50;8.70;99.90
14521;DHT22;7347;50.844;4.490;2023-11-22T14:13:17;8.70;99.90
14521;DHT22;7347;50.844;4.490;2023-11-22T14:15:46;8.60;99.90
14521;DHT22;7347;50.844;4.490;2023-11-22T14:18:14;8.60;99.90
14521;DHT22;7347;50.844;4.490;2023-11-22T14:20:42;8.60;99.90
14521;DHT22;7347;50.844;4.490;2023-11-22T14:23:09;8.60;99.90
14521;DHT22;7347;50.844;4.490;2023-11-22T14:25:36;8.60;99.90
14521;DHT22;7347;50.844;4.490;2023-11-22T14:28:03;8.60;99.90
14521;DHT22;7347;50.844;4.490;2023-11-22T14:30:30;8.70;99.90
14521;DHT22;7347;50.844;4.490;2023-11-22T14:33:01;8.80;99.90
14521;DHT22;7347;50.844;4.490;2023-11-22T14:35:33;9.00;99.90
14521;DHT22;7347;50.844;4.490;2023-11-22T14:38:00;9.00;99.90
14521;DHT22;7347;50.844;4.490;2023-11-22T14:40:28;9.00;99.90
14521;DHT22;7347;50.844;4.490;2023-11-22T14:42:56;8.90;99.90
14521;DHT22;7347;50.844;4.490;2023-11-22T14:45:23;8.90;99.90
14521;DHT22;7347;50.844;4.490;2023-11-22T14:47:52;8.80;99.90
14521;DHT22;7347;50.844;4.490;2023-11-22T14:50:19;8.70;99.90
14521;DHT22;7347;50.844;4.490;2023-11-22T14:52:48;8.70;99.90
14521;DHT22;7347;50.844;4.490;2023-11-22T14:55:15;8.60;99.90
14521;DHT22;7347;50.844;4.490;2023-11-22T14:57:44;8.60;99.90
14521;DHT22;7347;50.844;4.490;2023-11-22T15:00:12;8.50;99.90
14521;DHT22;7347;50.844;4.490;2023-11-22T15:02:40;8.60;99.90
14521;DHT22;7347;50.844;4.490;2023-11-22T15:05:08;8.60;99.90
14521;DHT22;7347;50.844;4.490;2023-11-22T15:07:35;8.60;99.90
14521;DHT22;7347;50.844;4.490;2023-11-22T15:10:05;8.50;99.90
14521;DHT22;7347;50.844;4.490;2023-11-22T15:12:33;8.40;99.90
14521;DHT22;7347;50.844;4.490;2023-11-22T15:15:00;8.40;99.90
14521;DHT22;7347;50.844;4.490;2023-11-22T15:17:27;8.50;99.90
14521;DHT22;7347;50.844;4.490;2023-11-22T15:19:55;8.40;99.90
14521;DHT22;7347;50.844;4.490;2023-11-22T15:22:21;8.30;99.90
14521;DHT22;7347;50.844;4.490;2023-11-22T15:24:48;8.30;99.90
14521;DHT22;7347;50.844;4.490;2023-11-22T15:27:16;8.40;99.90
14521;DHT22;7347;50.844;4.490;2023-11-22T15:29:43;8.40;99.90
14521;DHT22;7347;50.844;4.490;2023-11-22T15:32:11;8.30;99.90
14521;DHT22;7347;50.844;4.490;2023-11-22T15:34:39;8.20;99.90
14521;DHT22;7347;50.844;4.490;2023-11-22T15:37:06;8.30;99.90
14521;DHT22;7347;50.844;4.490;2023-11-22T15:39:36;8.20;99.90
14521;DHT22;7347;50.844;4.490;2023-11-22T15:42:03;8.20;99.90
14521;DHT22;7347;50.844;4.490;2023-11-22T15:44:32;8.10;99.90
14521;DHT22;7347;50.844;4.490;2023-11-22T15:46:59;8.30;99.90
14521;DHT22;7347;50.844;4.490;2023-11-22T15:49:30;8.40;99.90
14521;DHT22;7347;50.844;4.490;2023-11-22T15:51:57;8.30;99.90
14521;DHT22;7347;50.844;4.490;2023-11-22T15:54:24;8.20;99.90
14521;DHT22;7347;50.844;4.490;2023-11-22T15:56:52;8.20;99.90
14521;DHT22;7347;50.844;4.490;2023-11-22T15:59:19;8.20;99.90
14521;DHT22;7347;50.844;4.490;2023-11-22T16:01:47;8.30;99.90
14521;DHT22;7347;50.844;4.490;2023-11-22T16:04:14;8.20;99.90
14521;DHT22;7347;50.844;4.490;2023-11-22T16:06:42;8.20;99.90
14521;DHT22;7347;50.844;4.490;2023-11-22T16:09:09;8.20;99.90
14521;DHT22;7347;50.844;4.490;2023-11-22T16:11:38;8.30;99.90
14521;DHT22;7347;50.844;4.490;2023-11-22T16:14:05;8.30;99.90
14521;DHT22;7347;50.844;4.490;2023-11-22T16:16:32;8.20;99.90
14521;DHT22;7347;50.844;4.490;2023-11-22T16:19:00;8.20;99.90
14521;DHT22;7347;50.844;4.490;2023-11-22T16:21:27;8.20;99.90
14521;DHT22;7347;50.844;4.490;2023-11-22T16:23:54;8.30;99.90
14521;DHT22;7347;50.844;4.490;2023-11-22T16:26:21;8.30;99.90
14521;DHT22;7347;50.844;4.490;2023-11-22T16:28:49;8.30;99.90
14521;DHT22;7347;50.844;4.490;2023-11-22T16:31:16;8.30;99.90
14521;DHT22;7347;50.844;4.490;2023-11-22T16:33:45;8.20;99.90
14521;DHT22;7347;50.844;4.490;2023-11-22T16:36:14;8.20;99.90
14521;DHT22;7347;50.844;4.490;2023-11-22T16:38:41;8.10;99.90
14521;DHT22;7347;50.844;4.490;2023-11-22T16:41:07;8.10;99.90
14521;DHT22;7347;50.844;4.490;2023-11-22T16:43:34;8.00;99.90
14521;DHT22;7347;50.844;4.490;2023-11-22T16:46:03;7.90;99.90
14521;DHT22;7347;50.844;4.490;2023-11-22T16:48:30;7.80;99.90
14521;DHT22;7347;50.844;4.490;2023-11-22T16:50:57;7.90;99.90
14521;DHT22;7347;50.844;4.490;2023-11-22T16:53:25;7.90;99.90
14521;DHT22;7347;50.844;4.490;2023-11-22T16:55:52;7.90;99.90
14521;DHT22;7347;50.844;4.490;2023-11-22T16:58:19;7.90;99.90
14521;DHT22;7347;50.844;4.490;2023-11-22T17:00:46;7.90;99.90
14521;DHT22;7347;50.844;4.490;2023-11-22T17:03:14;7.80;99.90
14521;DHT22;7347;50.844;4.490;2023-11-22T17:05:41;7.90;99.90
14521;DHT22;7347;50.844;4.490;2023-11-22T17:08:09;7.80;99.90
14521;DHT22;7347;50.844;4.490;2023-11-22T17:10:38;7.80;99.90
14521;DHT22;7347;50.844;4.490;2023-11-22T17:13:04;7.80;99.90
14521;DHT22;7347;50.844;4.490;2023-11-22T17:15:32;7.80;99.90
14521;DHT22;7347;50.844;4.490;2023-11-22T17:17:59;7.70;99.90
14521;DHT22;7347;50.844;4.490;2023-11-22T17:20:26;7.80;99.90
14521;DHT22;7347;50.844;4.490;2023-11-22T17:22:53;7.90;99.90
14521;DHT22;7347;50.844;4.490;2023-11-22T17:25:20;7.90;99.90
14521;DHT22;7347;50.844;4.490;2023-11-22T17:27:48;7.90;99.90
14521;DHT22;7347;50.844;4.490;2023-11-22T17:30:15;7.90;99.90
14521;DHT22;7347;50.844;4.490;2023-11-22T17:32:42;7.80;99.90
14521;DHT22;7347;50.844;4.490;2023-11-22T17:35:10;7.80;99.90
14521;DHT22;7347;50.844;4.490;2023-11-22T17:37:38;7.80;99.90
14521;DHT22;7347;50.844;4.490;2023-11-22T17:40:06;7.70;99.90
14521;DHT22;7347;50.844;4.490;2023-11-22T17:42:33;7.70;99.90
14521;DHT22;7347;50.844;4.490;2023-11-22T17:45:01;7.70;99.90
14521;DHT22;7347;50.844;4.490;2023-11-22T17:47:28;7.70;99.90
14521;DHT22;7347;50.844;4.490;2023-11-22T17:49:58;7.70;99.90
14521;DHT22;7347;50.844;4.490;2023-11-22T17:52:25;7.70;99.90
14521;DHT22;7347;50.844;4.490;2023-11-22T17:54:52;7.60;99.90
14521;DHT22;7347;50.844;4.490;2023-11-22T17:57:19;7.70;99.90
14521;DHT22;7347;50.844;4.490;2023-11-22T17:59:47;7.80;99.90
14521;DHT22;7347;50.844;4.490;2023-11-22T18:02:15;7.70;99.90
14521;DHT22;7347;50.844;4.490;2023-11-22T18:04:43;7.70;99.90
14521;DHT22;7347;50.844;4.490;2023-11-22T18:07:10;7.70;99.90
14521;DHT22;7347;50.844;4.490;2023-11-22T18:09:37;7.80;99.90
14521;DHT22;7347;50.844;4.490;2023-11-22T18:12:04;7.90;99.90
14521;DHT22;7347;50.844;4.490;2023-11-22T18:14:34;7.80;99.90
14521;DHT22;7347;50.844;4.490;2023-11-22T18:17:01;7.80;99.90
14521;DHT22;7347;50.844;4.490;2023-11-22T18:19:29;7.80;99.90
14521;DHT22;7347;50.844;4.490;2023-11-22T18:21:56;7.70;99.90
14521;DHT22;7347;50.844;4.490;2023-11-22T18:24:24;7.70;99.90
14521;DHT22;7347;50.844;4.490;2023-11-22T18:26:53;7.70;99.90
14521;DHT22;7347;50.844;4.490;2023-11-22T18:29:20;7.60;99.90
14521;DHT22;7347;50.844;4.490;2023-11-22T18:31:50;7.60;99.90
14521;DHT22;7347;50.844;4.490;2023-11-22T18:34:17;7.60;99.90
14521;DHT22;7347;50.844;4.490;2023-11-22T18:36:45;7.60;99.90
14521;DHT22;7347;50.844;4.490;2023-11-22T18:39:12;7.70;99.90
14521;DHT22;7347;50.844;4.490;2023-11-22T18:41:39;7.70;99.90
14521;DHT22;7347;50.844;4.490;2023-11-22T18:44:06;7.70;99.90
14521;DHT22;7347;50.844;4.490;2023-11-22T18:46:34;7.60;99.90
14521;DHT22;7347;50.844;4.490;2023-11-22T18:49:01;7.60;99.90
14521;DHT22;7347;50.844;4.490;2023-11-22T18:51:28;7.60;99.90
14521;DHT22;7347;50.844;4.490;2023-11-22T18:53:57;7.50;99.90
14521;DHT22;7347;50.844;4.490;2023-11-22T18:56:24;7.50;99.90
14521;DHT22;7347;50.844;4.490;2023-11-22T18:58:51;7.40;99.90
14521;DHT22;7347;50.844;4.490;2023-11-22T19:01:18;7.40;99.90
14521;DHT22;7347;50.844;4.490;2023-11-22T19:03:46;7.30;99.90
14521;DHT22;7347;50.844;4.490;2023-11-22T19:06:13;7.30;99.90
14521;DHT22;7347;50.844;4.490;2023-11-22T19:08:40;7.30;99.90
14521;DHT22;7347;50.844;4.490;2023-11-22T19:11:10;7.30;99.90
14521;DHT22;7347;50.844;4.490;2023-11-22T19:13:37;7.40;99.90
14521;DHT22;7347;50.844;4.490;2023-11-22T19:16:05;7.30;99.90
14521;DHT22;7347;50.844;4.490;2023-11-22T19:18:32;7.30;99.90
14521;DHT22;7347;50.844;4.490;2023-11-22T19:20:59;7.30;99.90
14521;DHT22;7347;50.844;4.490;2023-11-22T19:23:28;7.30;99.90
14521;DHT22;7347;50.844;4.490;2023-11-22T19:25:56;7.40;99.90
14521;DHT22;7347;50.844;4.490;2023-11-22T19:28:26;7.40;99.90
14521;DHT22;7347;50.844;4.490;2023-11-22T19:30:53;7.50;99.90
14521;DHT22;7347;50.844;4.490;2023-11-22T19:33:20;7.50;99.90
14521;DHT22;7347;50.844;4.490;2023-11-22T19:35:47;7.50;99.90
14521;DHT22;7347;50.844;4.490;2023-11-22T19:38:14;7.40;99.90
14521;DHT22;7347;50.844;4.490;2023-11-22T19:40:41;7.40;99.90
14521;DHT22;7347;50.844;4.490;2023-11-22T19:43:10;7.40;99.90
14521;DHT22;7347;50.844;4.490;2023-11-22T19:45:39;7.40;99.90
14521;DHT22;7347;50.844;4.490;2023-11-22T19:48:07;7.40;99.90
14521;DHT22;7347;50.844;4.490;2023-11-22T19:50:34;7.30;99.90
14521;DHT22;7347;50.844;4.490;2023-11-22T19:53:00;7.30;99.90
14521;DHT22;7347;50.844;4.490;2023-11-22T19:55:28;7.20;99.90
14521;DHT22;7347;50.844;4.490;2023-11-22T19:57:56;7.20;99.90
14521;DHT22;7347;50.844;4.490;2023-11-22T20:00:24;7.20;99.90
14521;DHT22;7347;50.844;4.490;2023-11-22T20:02:52;7.20;99.90
14521;DHT22;7347;50.844;4.490;2023-11-22T20:05:19;7.10;99.90
14521;DHT22;7347;50.844;4.490;2023-11-22T20:07:46;7.10;99.90
14521;DHT22;7347;50.844;4.490;2023-11-22T20:10:13;7.10;99.90
14521;DHT22;7347;50.844;4.490;2023-11-22T20:12:40;7.10;99.90
14521;DHT22;7347;50.844;4.490;2023-11-22T20:15:08;7.00;99.90
14521;DHT22;7347;50.844;4.490;2023-11-22T20:17:35;7.00;99.90
14521;DHT22;7347;50.844;4.490;2023-11-22T20:20:04;7.00;99.90
14521;DHT22;7347;50.844;4.490;2023-11-22T20:22:32;6.90;99.90
14521;DHT22;7347;50.844;4.490;2023-11-22T20:24:59;7.00;99.90
14521;DHT22;7347;50.844;4.490;2023-11-22T20:27:25;7.00;99.90
14521;DHT22;7347;50.844;4.490;2023-11-22T20:29:54;7.10;99.90
14521;DHT22;7347;50.844;4.490;2023-11-22T20:32:20;7.10;99.90
14521;DHT22;7347;50.844;4.490;2023-11-22T20:34:48;7.20;99.90
14521;DHT22;7347;50.844;4.490;2023-11-22T20:37:17;7.30;99.90
14521;DHT22;7347;50.844;4.490;2023-11-22T20:39:44;7.40;99.90
14521;DHT22;7347;50.844;4.490;2023-11-22T20:42:11;7.30;99.90
14521;DHT22;7347;50.844;4.490;2023-11-22T20:44:38;7.30;99.90
14521;DHT22;7347;50.844;4.490;2023-11-22T20:47:05;7.20;99.90
14521;DHT22;7347;50.844;4.490;2023-11-22T20:49:32;7.20;99.90
14521;DHT22;7347;50.844;4.490;2023-11-22T20:51:58;7.30;99.90
14521;DHT22;7347;50.844;4.490;2023-11-22T20:54:27;7.30;99.90
14521;DHT22;7347;50.844;4.490;2023-11-22T20:56:53;7.40;99.90
14521;DHT22;7347;50.844;4.490;2023-11-22T20:59:20;7.40;99.90
14521;DHT22;7347;50.844;4.490;2023-11-22T21:01:47;7.40;99.90
14521;DHT22;7347;50.844;4.490;2023-11-22T21:04:14;7.30;99.90
14521;DHT22;7347;50.844;4.490;2023-11-22T21:06:41;7.30;99.90
14521;DHT22;7347;50.844;4.490;2023-11-22T21:09:08;7.30;99.90
14521;DHT22;7347;50.844;4.490;2023-11-22T21:11:39;7.40;99.90
14521;DHT22;7347;50.844;4.490;2023-11-22T21:14:06;7.50;99.90
14521;DHT22;7347;50.844;4.490;2023-11-22T21:16:33;7.60;99.90
14521;DHT22;7347;50.844;4.490;2023-11-22T21:19:01;7.60;99.90
14521;DHT22;7347;50.844;4.490;2023-11-22T21:21:28;7.60;99.90
14521;DHT22;7347;50.844;4.490;2023-11-22T21:23:56;7.60;99.90
14521;DHT22;7347;50.844;4.490;2023-11-22T21:26:23;7.70;99.90
14521;DHT22;7347;50.844;4.490;2023-11-22T21:28:51;7.80;99.90
14521;DHT22;7347;50.844;4.490;2023-11-22T21:31:18;7.90;99.90
14521;DHT22;7347;50.844;4.490;2023-11-22T21:33:46;7.70;99.90
14521;DHT22;7347;50.844;4.490;2023-11-22T21:36:14;7.70;99.90
14521;DHT22;7347;50.844;4.490;2023-11-22T21:38:41;7.80;99.90
14521;DHT22;7347;50.844;4.490;2023-11-22T21:41:09;8.00;99.90
14521;DHT22;7347;50.844;4.490;2023-11-22T21:43:37;8.00;99.90
14521;DHT22;7347;50.844;4.490;2023-11-22T21:46:06;8.00;99.90
14521;DHT22;7347;50.844;4.490;2023-11-22T21:48:33;8.10;99.90
14521;DHT22;7347;50.844;4.490;2023-11-22T21:51:00;8.10;99.90
14521;DHT22;7347;50.844;4.490;2023-11-22T21:53:28;8.20;99.90
14521;DHT22;7347;50.844;4.490;2023-11-22T21:55:55;8.20;99.90
14521;DHT22;7347;50.844;4.490;2023-11-22T21:58:22;8.20;99.90
14521;DHT22;7347;50.844;4.490;2023-11-22T22:00:49;8.20;99.90
14521;DHT22;7347;50.844;4.490;2023-11-22T22:03:19;8.10;99.90
14521;DHT22;7347;50.844;4.490;2023-11-22T22:05:46;8.30;99.90
14521;DHT22;7347;50.844;4.490;2023-11-22T22:08:13;8.30;99.90
14521;DHT22;7347;50.844;4.490;2023-11-22T22:10:40;8.40;99.90
14521;DHT22;7347;50.844;4.490;2023-11-22T22:13:08;8.40;99.90
14521;DHT22;7347;50.844;4.490;2023-11-22T22:15:35;8.50;99.90
14521;DHT22;7347;50.844;4.490;2023-11-22T22:18:02;8.40;99.90
